createdAt,value
2022-10-15T00:00:49.580Z,970.35
2022-10-15T00:01:49.620Z,970.30
2022-10-15T00:02:49.553Z,970.36
2022-10-15T00:03:49.557Z,970.34
2022-10-15T00:04:49.526Z,970.32
2022-10-15T00:05:49.513Z,970.33
2022-10-15T00:06:49.496Z,970.32
2022-10-15T00:07:49.475Z,970.41
2022-10-15T00:08:49.467Z,970.33
2022-10-15T00:09:49.451Z,970.36
2022-10-15T00:10:49.439Z,970.29
2022-10-15T00:11:49.425Z,970.27
2022-10-15T00:12:49.448Z,970.30
2022-10-15T00:13:49.415Z,970.27
2022-10-15T00:14:49.404Z,970.30
2022-10-15T00:15:49.373Z,970.26
2022-10-15T00:16:49.409Z,970.30
2022-10-15T00:17:49.353Z,970.24
2022-10-15T00:18:49.330Z,970.30
2022-10-15T00:19:49.314Z,970.28
2022-10-15T00:20:49.309Z,970.30
2022-10-15T00:21:49.361Z,970.27
2022-10-15T00:22:49.279Z,970.29
2022-10-15T00:23:49.265Z,970.29
2022-10-15T00:24:49.252Z,970.18
2022-10-15T00:25:49.238Z,970.17
2022-10-15T00:26:49.226Z,970.21
2022-10-15T00:27:49.204Z,970.26
2022-10-15T00:28:49.247Z,970.19
2022-10-15T00:29:49.188Z,970.25
2022-10-15T00:30:49.195Z,970.19
2022-10-15T00:31:49.200Z,970.26
2022-10-15T00:32:49.138Z,970.28
2022-10-15T00:33:49.122Z,970.26
2022-10-15T00:34:49.115Z,970.32
2022-10-15T00:35:49.101Z,970.25
2022-10-15T00:36:49.091Z,970.28
2022-10-15T00:37:49.067Z,970.22
2022-10-15T00:38:49.065Z,970.22
2022-10-15T00:39:49.107Z,970.24
2022-10-15T00:40:49.035Z,970.18
2022-10-15T00:41:49.022Z,970.21
2022-10-15T00:42:49.009Z,970.20
2022-10-15T00:43:48.989Z,970.15
2022-10-15T00:44:48.980Z,970.23
2022-10-15T00:45:48.963Z,970.27
2022-10-15T00:46:49.126Z,970.20
2022-10-15T00:47:48.954Z,970.22
2022-10-15T00:48:48.919Z,970.20
2022-10-15T00:49:48.903Z,970.21
2022-10-15T00:50:48.895Z,970.24
2022-10-15T00:51:48.888Z,970.18
2022-10-15T00:52:48.869Z,970.20
2022-10-15T00:53:48.852Z,970.18
2022-10-15T00:54:48.837Z,970.15
2022-10-15T00:55:48.827Z,970.19
2022-10-15T00:56:48.820Z,970.15
2022-10-15T00:57:48.803Z,970.18
2022-10-15T00:58:48.795Z,970.13
2022-10-15T00:59:48.770Z,970.15
2022-10-15T01:00:48.830Z,970.24
2022-10-15T01:01:48.739Z,970.10
2022-10-15T01:02:48.753Z,970.13
2022-10-15T01:03:48.719Z,970.13
2022-10-15T01:04:48.714Z,970.11
2022-10-15T01:05:48.691Z,970.11
2022-10-15T01:06:48.679Z,970.11
2022-10-15T01:07:48.662Z,970.10
2022-10-15T01:08:48.659Z,970.12
2022-10-15T01:09:48.639Z,970.11
2022-10-15T01:10:48.624Z,970.04
2022-10-15T01:11:48.604Z,970.05
2022-10-15T01:12:48.601Z,970.09
2022-10-15T01:13:48.581Z,970.07
2022-10-15T01:14:48.571Z,970.06
2022-10-15T01:15:48.565Z,970.04
2022-10-15T01:16:48.538Z,970.00
2022-10-15T01:17:48.523Z,969.96
2022-10-15T01:18:48.536Z,969.95
2022-10-15T01:19:48.494Z,969.89
2022-10-15T01:20:48.487Z,970.00
2022-10-15T01:21:48.473Z,969.93
2022-10-15T01:22:48.461Z,969.91
2022-10-15T01:23:48.439Z,969.91
2022-10-15T01:24:48.436Z,969.91
2022-10-15T01:25:48.418Z,969.92
2022-10-15T01:26:48.408Z,969.92
2022-10-15T01:27:48.391Z,969.91
2022-10-15T01:28:48.455Z,969.99
2022-10-15T01:29:48.360Z,969.92
2022-10-15T01:30:48.349Z,969.87
2022-10-15T01:31:48.334Z,969.87
2022-10-15T01:32:48.325Z,969.90
2022-10-15T01:33:48.308Z,969.88
2022-10-15T01:34:48.323Z,969.90
2022-10-15T01:35:48.292Z,969.94
2022-10-15T01:36:48.271Z,969.87
2022-10-15T01:37:48.255Z,969.99
2022-10-15T01:38:48.247Z,969.96
2022-10-15T01:39:48.228Z,969.91
2022-10-15T01:40:48.215Z,969.97
2022-10-15T01:41:48.198Z,969.90
2022-10-15T01:42:48.185Z,969.94
2022-10-15T01:43:48.168Z,969.95
2022-10-15T01:44:48.160Z,969.90
2022-10-15T01:45:48.145Z,969.94
2022-10-15T01:46:48.134Z,969.94
2022-10-15T01:47:48.120Z,969.87
2022-10-15T01:48:48.108Z,969.83
2022-10-15T01:49:48.091Z,969.86
2022-10-15T01:50:48.168Z,969.85
2022-10-15T01:51:48.069Z,969.85
2022-10-15T01:52:48.057Z,969.81
2022-10-15T01:53:48.040Z,969.71
2022-10-15T01:54:48.028Z,969.76
2022-10-15T01:55:48.017Z,969.81
2022-10-15T01:56:47.998Z,969.87
2022-10-15T01:57:47.978Z,969.87
2022-10-15T01:58:47.967Z,969.77
2022-10-15T01:59:47.951Z,969.84
2022-10-15T02:00:47.979Z,969.81
2022-10-15T02:01:47.931Z,969.78
2022-10-15T02:02:47.921Z,969.79
2022-10-15T02:03:47.901Z,969.78
2022-10-15T02:04:47.887Z,969.83
2022-10-15T02:05:47.869Z,969.81
2022-10-15T02:06:47.881Z,969.77
2022-10-15T02:07:47.843Z,969.78
2022-10-15T02:08:47.830Z,969.84
2022-10-15T02:09:47.814Z,969.87
2022-10-15T02:10:47.807Z,969.76
2022-10-15T02:11:47.788Z,969.77
2022-10-15T02:12:47.782Z,969.69
2022-10-15T02:13:47.770Z,969.72
2022-10-15T02:14:47.755Z,969.68
2022-10-15T02:15:47.741Z,969.71
2022-10-15T02:16:47.727Z,969.71
2022-10-15T02:17:47.713Z,969.73
2022-10-15T02:18:47.704Z,969.70
2022-10-15T02:19:47.770Z,969.69
2022-10-15T02:20:47.673Z,969.67
2022-10-15T02:21:47.648Z,969.69
2022-10-15T02:22:47.659Z,969.72
2022-10-15T02:23:47.622Z,969.73
2022-10-15T02:24:51.648Z,969.76
2022-10-15T02:25:48.620Z,969.67
2022-10-15T02:26:47.589Z,969.72
2022-10-15T02:27:47.567Z,969.73
2022-10-15T02:28:47.609Z,969.70
2022-10-15T02:29:47.550Z,969.66
2022-10-15T02:30:47.537Z,969.75
2022-10-15T02:31:47.516Z,969.72
2022-10-15T02:32:47.502Z,969.71
2022-10-15T02:33:47.489Z,969.77
2022-10-15T02:34:47.482Z,969.74
2022-10-15T02:35:47.458Z,969.75
2022-10-15T02:36:47.453Z,969.76
2022-10-15T02:37:47.440Z,969.89
2022-10-15T02:38:47.450Z,969.90
2022-10-15T02:39:47.408Z,969.87
2022-10-15T02:40:47.396Z,969.91
2022-10-15T02:41:47.382Z,969.90
2022-10-15T02:42:47.375Z,969.87
2022-10-15T02:43:47.352Z,969.85
2022-10-15T02:44:47.338Z,969.90
2022-10-15T02:45:47.320Z,969.92
2022-10-15T02:46:47.317Z,969.94
2022-10-15T02:47:47.295Z,969.94
2022-10-15T02:48:47.287Z,969.93
2022-10-15T02:49:47.273Z,969.99
2022-10-15T02:50:47.258Z,969.95
2022-10-15T02:51:47.241Z,970.03
2022-10-15T02:52:47.233Z,969.97
2022-10-15T02:53:47.223Z,969.93
2022-10-15T02:54:47.236Z,969.97
2022-10-15T02:55:47.195Z,969.93
2022-10-15T02:56:47.188Z,969.93
2022-10-15T02:57:47.164Z,969.98
2022-10-15T02:58:47.156Z,969.97
2022-10-15T02:59:47.137Z,969.96
2022-10-15T03:00:47.196Z,969.95
2022-10-15T03:01:47.110Z,969.90
2022-10-15T03:02:47.097Z,969.92
2022-10-15T03:03:47.084Z,969.97
2022-10-15T03:04:47.074Z,969.94
2022-10-15T03:05:47.059Z,969.97
2022-10-15T03:06:47.041Z,969.92
2022-10-15T03:07:47.032Z,969.90
2022-10-15T03:08:47.013Z,969.91
2022-10-15T03:09:47.001Z,970.04
2022-10-15T03:10:47.007Z,970.02
2022-10-15T03:11:46.971Z,970.07
2022-10-15T03:12:46.961Z,970.02
2022-10-15T03:13:46.950Z,969.98
2022-10-15T03:14:46.931Z,970.04
2022-10-15T03:15:46.922Z,970.06
2022-10-15T03:16:46.900Z,970.01
2022-10-15T03:17:46.891Z,970.04
2022-10-15T03:18:46.877Z,969.98
2022-10-15T03:19:46.864Z,969.97
2022-10-15T03:20:46.848Z,970.02
2022-10-15T03:21:46.842Z,970.01
2022-10-15T03:22:46.820Z,970.02
2022-10-15T03:23:46.809Z,970.01
2022-10-15T03:24:46.798Z,970.01
2022-10-15T03:25:46.789Z,970.01
2022-10-15T03:26:46.799Z,970.05
2022-10-15T03:27:46.764Z,969.98
2022-10-15T03:28:46.787Z,969.93
2022-10-15T03:29:46.728Z,969.99
2022-10-15T03:30:46.721Z,970.04
2022-10-15T03:31:46.703Z,969.98
2022-10-15T03:32:46.702Z,970.03
2022-10-15T03:33:46.683Z,970.12
2022-10-15T03:34:46.663Z,970.15
2022-10-15T03:35:46.657Z,970.14
2022-10-15T03:36:46.629Z,970.17
2022-10-15T03:37:46.621Z,970.14
2022-10-15T03:38:46.610Z,970.10
2022-10-15T03:39:46.595Z,970.15
2022-10-15T03:40:46.591Z,970.09
2022-10-15T03:41:46.573Z,970.05
2022-10-15T03:42:46.575Z,970.08
2022-10-15T03:43:46.546Z,970.09
2022-10-15T03:44:46.532Z,970.16
2022-10-15T03:45:46.515Z,970.18
2022-10-15T03:46:46.503Z,970.16
2022-10-15T03:47:46.493Z,970.17
2022-10-15T03:48:46.474Z,970.23
2022-10-15T03:49:46.460Z,970.30
2022-10-15T03:50:46.458Z,970.23
2022-10-15T03:51:46.439Z,970.27
2022-10-15T03:52:46.424Z,970.30
2022-10-15T03:53:46.413Z,970.34
2022-10-15T03:54:46.395Z,970.25
2022-10-15T03:55:46.395Z,970.17
2022-10-15T03:56:46.368Z,970.22
2022-10-15T03:57:46.355Z,970.28
2022-10-15T03:58:46.361Z,970.29
2022-10-15T03:59:46.329Z,970.26
2022-10-15T04:00:46.362Z,970.35
2022-10-15T04:01:46.306Z,970.32
2022-10-15T04:02:46.288Z,970.30
2022-10-15T04:03:46.285Z,970.31
2022-10-15T04:04:46.259Z,970.29
2022-10-15T04:05:48.999Z,970.38
2022-10-15T04:06:46.232Z,970.30
2022-10-15T04:07:46.226Z,970.31
2022-10-15T04:08:46.290Z,970.35
2022-10-15T04:09:46.198Z,970.42
2022-10-15T04:10:46.180Z,970.43
2022-10-15T04:11:46.174Z,970.39
2022-10-15T04:12:46.156Z,970.43
2022-10-15T04:13:46.145Z,970.37
2022-10-15T04:14:46.150Z,970.46
2022-10-15T04:15:46.113Z,970.47
2022-10-15T04:16:46.110Z,970.51
2022-10-15T04:17:46.150Z,970.50
2022-10-15T04:18:46.078Z,970.42
2022-10-15T04:19:46.063Z,970.38
2022-10-15T04:20:46.043Z,970.48
2022-10-15T04:21:46.038Z,970.39
2022-10-15T04:22:46.015Z,970.45
2022-10-15T04:23:46.012Z,970.40
2022-10-15T04:24:45.991Z,970.48
2022-10-15T04:25:45.981Z,970.51
2022-10-15T04:26:46.014Z,970.48
2022-10-15T04:27:45.955Z,970.56
2022-10-15T04:28:46.037Z,970.49
2022-10-15T04:29:45.937Z,970.51
2022-10-15T04:30:45.934Z,970.47
2022-10-15T04:31:45.910Z,970.62
2022-10-15T04:32:45.889Z,970.52
2022-10-15T04:33:45.979Z,970.47
2022-10-15T04:34:45.861Z,970.51
2022-10-15T04:35:45.849Z,970.47
2022-10-15T04:36:45.834Z,970.55
2022-10-15T04:37:45.825Z,970.58
2022-10-15T04:38:45.802Z,970.60
2022-10-15T04:39:45.805Z,970.68
2022-10-15T04:40:45.785Z,970.67
2022-10-15T04:41:45.772Z,970.66
2022-10-15T04:42:45.757Z,970.60
2022-10-15T04:43:45.749Z,970.76
2022-10-15T04:44:45.727Z,970.72
2022-10-15T04:45:45.721Z,970.71
2022-10-15T04:46:45.718Z,970.65
2022-10-15T04:47:45.691Z,970.68
2022-10-15T04:48:45.671Z,970.66
2022-10-15T04:49:45.661Z,970.66
2022-10-15T04:50:45.643Z,970.71
2022-10-15T04:51:45.632Z,970.60
2022-10-15T04:52:45.625Z,970.66
2022-10-15T04:53:45.613Z,970.55
2022-10-15T04:54:45.597Z,970.60
2022-10-15T04:55:45.587Z,970.58
2022-10-15T04:56:45.574Z,970.59
2022-10-15T04:57:45.562Z,970.63
2022-10-15T04:58:45.643Z,970.68
2022-10-15T04:59:45.532Z,970.61
2022-10-15T05:00:45.517Z,970.71
2022-10-15T05:01:45.534Z,970.74
2022-10-15T05:02:45.534Z,970.71
2022-10-15T05:03:45.551Z,970.71
2022-10-15T05:04:45.460Z,970.76
2022-10-15T05:05:45.453Z,970.75
2022-10-15T05:06:45.436Z,970.68
2022-10-15T05:07:45.420Z,970.66
2022-10-15T05:08:45.413Z,970.68
2022-10-15T05:09:46.462Z,970.65
2022-10-15T05:10:45.383Z,970.68
2022-10-15T05:11:45.379Z,970.72
2022-10-15T05:12:45.354Z,970.72
2022-10-15T05:13:45.340Z,970.71
2022-10-15T05:14:45.324Z,970.73
2022-10-15T05:15:45.316Z,970.77
2022-10-15T05:16:45.352Z,970.79
2022-10-15T05:17:45.290Z,970.79
2022-10-15T05:18:45.318Z,970.77
2022-10-15T05:19:45.266Z,970.79
2022-10-15T05:20:45.254Z,970.85
2022-10-15T05:21:45.260Z,970.82
2022-10-15T05:22:45.222Z,970.88
2022-10-15T05:23:45.213Z,970.84
2022-10-15T05:24:45.191Z,970.92
2022-10-15T05:25:45.182Z,970.92
2022-10-15T05:26:45.168Z,970.92
2022-10-15T05:27:45.202Z,971.00
2022-10-15T05:28:45.212Z,971.04
2022-10-15T05:29:45.131Z,971.01
2022-10-15T05:30:45.113Z,971.03
2022-10-15T05:31:45.102Z,970.96
2022-10-15T05:32:45.091Z,970.98
2022-10-15T05:33:45.077Z,970.99
2022-10-15T05:34:45.081Z,971.01
2022-10-15T05:35:45.055Z,971.04
2022-10-15T05:36:45.035Z,971.08
2022-10-15T05:37:45.023Z,971.12
2022-10-15T05:38:45.007Z,971.07
2022-10-15T05:39:44.998Z,971.05
2022-10-15T05:40:44.978Z,971.00
2022-10-15T05:41:44.973Z,971.06
2022-10-15T05:42:45.043Z,971.06
2022-10-15T05:43:44.940Z,971.10
2022-10-15T05:44:44.929Z,971.16
2022-10-15T05:45:44.964Z,971.14
2022-10-15T05:46:44.899Z,971.19
2022-10-15T05:47:44.898Z,971.17
2022-10-15T05:48:44.870Z,971.18
2022-10-15T05:49:44.859Z,971.25
2022-10-15T05:50:44.864Z,971.28
2022-10-15T05:51:44.880Z,971.17
2022-10-15T05:52:44.821Z,971.19
2022-10-15T05:53:44.806Z,971.23
2022-10-15T05:54:44.793Z,971.21
2022-10-15T05:55:44.782Z,971.28
2022-10-15T05:56:44.766Z,971.21
2022-10-15T05:57:44.762Z,971.28
2022-10-15T05:58:44.742Z,971.30
2022-10-15T05:59:44.736Z,971.23
2022-10-15T06:00:44.717Z,971.29
2022-10-15T06:01:44.764Z,971.34
2022-10-15T06:02:44.808Z,971.31
2022-10-15T06:03:44.679Z,971.31
2022-10-15T06:04:44.657Z,971.31
2022-10-15T06:05:44.649Z,971.32
2022-10-15T06:06:44.654Z,971.33
2022-10-15T06:07:44.619Z,971.39
2022-10-15T06:08:44.608Z,971.43
2022-10-15T06:09:44.598Z,971.42
2022-10-15T06:10:44.629Z,971.45
2022-10-15T06:11:44.567Z,971.49
2022-10-15T06:12:44.566Z,971.50
2022-10-15T06:13:44.551Z,971.49
2022-10-15T06:14:44.533Z,971.50
2022-10-15T06:15:44.521Z,971.58
2022-10-15T06:16:44.501Z,971.49
2022-10-15T06:17:44.491Z,971.49
2022-10-15T06:18:44.473Z,971.48
2022-10-15T06:19:44.460Z,971.50
2022-10-15T06:20:44.448Z,971.52
2022-10-15T06:21:44.440Z,971.50
2022-10-15T06:22:44.449Z,971.45
2022-10-15T06:23:44.412Z,971.50
2022-10-15T06:24:44.394Z,971.49
2022-10-15T06:25:44.385Z,971.51
2022-10-15T06:26:44.419Z,971.54
2022-10-15T06:27:44.368Z,971.53
2022-10-15T06:28:44.464Z,971.62
2022-10-15T06:29:44.330Z,971.61
2022-10-15T06:30:44.312Z,971.61
2022-10-15T06:31:44.305Z,971.66
2022-10-15T06:32:44.284Z,971.66
2022-10-15T06:33:44.277Z,971.60
2022-10-15T06:34:44.258Z,971.60
2022-10-15T06:35:44.249Z,971.70
2022-10-15T06:36:44.238Z,971.58
2022-10-15T06:37:44.227Z,971.57
2022-10-15T06:38:44.370Z,971.71
2022-10-15T06:39:44.199Z,971.69
2022-10-15T06:40:44.180Z,971.69
2022-10-15T06:41:44.174Z,971.67
2022-10-15T06:42:44.166Z,971.67
2022-10-15T06:43:44.178Z,971.72
2022-10-15T06:44:44.135Z,971.77
2022-10-15T06:45:44.112Z,971.81
2022-10-15T06:46:44.098Z,971.84
2022-10-15T06:47:44.091Z,971.82
2022-10-15T06:48:44.076Z,971.79
2022-10-15T06:49:44.065Z,971.79
2022-10-15T06:50:44.055Z,971.77
2022-10-15T06:51:44.039Z,971.83
2022-10-15T06:52:44.018Z,971.86
2022-10-15T06:53:44.008Z,971.90
2022-10-15T06:54:44.016Z,971.95
2022-10-15T06:55:43.981Z,971.98
2022-10-15T06:56:43.963Z,971.95
2022-10-15T06:57:43.958Z,972.01
2022-10-15T06:58:43.937Z,971.96
2022-10-15T06:59:43.931Z,972.03
2022-10-15T07:00:43.917Z,972.00
2022-10-15T07:01:43.905Z,972.11
2022-10-15T07:02:43.889Z,972.09
2022-10-15T07:03:43.882Z,972.16
2022-10-15T07:04:43.868Z,972.17
2022-10-15T07:05:43.851Z,972.10
2022-10-15T07:06:43.838Z,972.21
2022-10-15T07:07:43.830Z,972.20
2022-10-15T07:08:43.812Z,972.22
2022-10-15T07:09:43.797Z,972.16
2022-10-15T07:10:43.814Z,972.15
2022-10-15T07:11:43.773Z,972.21
2022-10-15T07:12:43.754Z,972.25
2022-10-15T07:13:43.746Z,972.23
2022-10-15T07:14:43.727Z,972.25
2022-10-15T07:15:43.716Z,972.24
2022-10-15T07:16:43.801Z,972.27
2022-10-15T07:17:43.689Z,972.32
2022-10-15T07:18:43.674Z,972.27
2022-10-15T07:19:43.663Z,972.30
2022-10-15T07:20:43.649Z,972.30
2022-10-15T07:21:43.634Z,972.30
2022-10-15T07:22:43.625Z,972.36
2022-10-15T07:23:43.607Z,972.32
2022-10-15T07:24:43.594Z,972.31
2022-10-15T07:25:43.576Z,972.37
2022-10-15T07:26:43.586Z,972.31
2022-10-15T07:27:43.551Z,972.35
2022-10-15T07:28:43.616Z,972.39
2022-10-15T07:29:43.530Z,972.35
2022-10-15T07:30:43.520Z,972.38
2022-10-15T07:32:45.606Z,972.27
2022-10-15T07:33:43.478Z,972.32
2022-10-15T07:34:43.469Z,972.35
2022-10-15T07:35:43.451Z,972.34
2022-10-15T07:36:43.440Z,972.30
2022-10-15T07:37:43.424Z,972.34
2022-10-15T07:38:43.415Z,972.37
2022-10-15T07:39:43.395Z,972.30
2022-10-15T07:40:43.384Z,972.40
2022-10-15T07:41:43.368Z,972.44
2022-10-15T07:42:43.509Z,972.31
2022-10-15T07:43:43.342Z,972.37
2022-10-15T07:44:43.329Z,972.41
2022-10-15T07:45:43.311Z,972.48
2022-10-15T07:46:43.305Z,972.44
2022-10-15T07:47:43.288Z,972.42
2022-10-15T07:48:43.287Z,972.43
2022-10-15T07:49:43.265Z,972.46
2022-10-15T07:50:43.255Z,972.43
2022-10-15T07:51:43.237Z,972.42
2022-10-15T07:52:43.221Z,972.41
2022-10-15T07:53:43.207Z,972.40
2022-10-15T07:54:43.194Z,972.41
2022-10-15T07:55:43.180Z,972.36
2022-10-15T07:56:43.175Z,972.40
2022-10-15T07:57:43.160Z,972.31
2022-10-15T07:58:43.182Z,972.43
2022-10-15T07:59:43.130Z,972.42
2022-10-15T08:00:43.249Z,972.39
2022-10-15T08:01:45.886Z,972.38
2022-10-15T08:02:43.210Z,972.41
2022-10-15T08:03:43.078Z,972.43
2022-10-15T08:04:43.066Z,972.43
2022-10-15T08:05:43.045Z,972.39
2022-10-15T08:06:43.038Z,972.43
2022-10-15T08:07:43.017Z,972.44
2022-10-15T08:08:43.018Z,972.37
2022-10-15T08:09:43.038Z,972.37
2022-10-15T08:10:42.983Z,972.39
2022-10-15T08:11:42.965Z,972.40
2022-10-15T08:12:42.962Z,972.47
2022-10-15T08:13:42.943Z,972.53
2022-10-15T08:14:42.954Z,972.40
2022-10-15T08:15:42.915Z,972.44
2022-10-15T08:16:42.906Z,972.46
2022-10-15T08:17:42.888Z,972.45
2022-10-15T08:18:42.980Z,972.41
2022-10-15T08:19:42.864Z,972.41
2022-10-15T08:20:42.850Z,972.45
2022-10-15T08:21:45.246Z,972.46
2022-10-15T08:22:42.825Z,972.42
2022-10-15T08:23:42.806Z,972.40
2022-10-15T08:24:42.800Z,972.40
2022-10-15T08:25:42.784Z,972.30
2022-10-15T08:26:42.774Z,972.23
2022-10-15T08:27:42.758Z,972.25
2022-10-15T08:28:42.859Z,972.24
2022-10-15T08:29:42.762Z,972.15
2022-10-15T08:30:42.742Z,972.23
2022-10-15T08:31:42.700Z,972.26
2022-10-15T08:32:42.698Z,972.23
2022-10-15T08:33:42.679Z,972.18
2022-10-15T08:34:42.662Z,972.11
2022-10-15T08:35:42.647Z,972.19
2022-10-15T08:36:42.644Z,972.25
2022-10-15T08:37:42.623Z,972.17
2022-10-15T08:38:42.615Z,972.17
2022-10-15T08:39:42.596Z,972.14
2022-10-15T08:40:42.589Z,972.25
2022-10-15T08:41:42.570Z,972.30
2022-10-15T08:42:42.561Z,972.31
2022-10-15T08:43:42.547Z,972.29
2022-10-15T08:44:42.528Z,972.23
2022-10-15T08:45:42.512Z,972.26
2022-10-15T08:46:42.527Z,972.20
2022-10-15T08:47:42.488Z,972.32
2022-10-15T08:48:42.480Z,972.31
2022-10-15T08:49:42.461Z,972.24
2022-10-15T08:50:42.500Z,972.24
2022-10-15T08:51:42.439Z,972.34
2022-10-15T08:52:42.429Z,972.27
2022-10-15T08:53:42.409Z,972.27
2022-10-15T08:54:42.399Z,972.22
2022-10-15T08:55:42.385Z,972.36
2022-10-15T08:56:42.369Z,972.24
2022-10-15T08:57:42.351Z,972.30
2022-10-15T08:58:42.343Z,972.31
2022-10-15T08:59:42.326Z,972.24
2022-10-15T09:00:42.322Z,972.16
2022-10-15T09:01:42.309Z,972.28
2022-10-15T09:02:42.441Z,972.30
2022-10-15T09:03:42.278Z,972.33
2022-10-15T09:04:42.270Z,972.30
2022-10-15T09:05:42.249Z,972.32
2022-10-15T09:06:42.239Z,972.34
2022-10-15T09:07:42.223Z,972.31
2022-10-15T09:08:42.209Z,972.39
2022-10-15T09:09:42.193Z,972.37
2022-10-15T09:10:42.184Z,972.37
2022-10-15T09:11:42.167Z,972.34
2022-10-15T09:12:42.155Z,972.34
2022-10-15T09:13:42.175Z,972.36
2022-10-15T09:14:42.131Z,972.40
2022-10-15T09:15:42.112Z,972.37
2022-10-15T09:16:42.109Z,972.48
2022-10-15T09:17:42.094Z,972.46
2022-10-15T09:18:42.104Z,972.47
2022-10-15T09:19:42.064Z,972.46
2022-10-15T09:20:42.052Z,972.46
2022-10-15T09:21:42.037Z,972.44
2022-10-15T09:22:42.079Z,972.47
2022-10-15T09:23:42.015Z,972.43
2022-10-15T09:24:41.997Z,972.44
2022-10-15T09:25:41.979Z,972.53
2022-10-15T09:26:41.972Z,972.47
2022-10-15T09:27:41.966Z,972.49
2022-10-15T09:28:41.991Z,972.55
2022-10-15T09:29:41.932Z,972.47
2022-10-15T09:30:41.936Z,972.48
2022-10-15T09:31:41.918Z,972.57
2022-10-15T09:32:41.892Z,972.51
2022-10-15T09:33:41.875Z,972.53
2022-10-15T09:34:41.888Z,972.50
2022-10-15T09:35:41.848Z,972.57
2022-10-15T09:36:41.840Z,972.56
2022-10-15T09:37:41.829Z,972.51
2022-10-15T09:38:41.811Z,972.54
2022-10-15T09:39:41.796Z,972.42
2022-10-15T09:40:41.790Z,972.39
2022-10-15T09:41:41.771Z,972.46
2022-10-15T09:42:41.762Z,972.51
2022-10-15T09:43:41.748Z,972.57
2022-10-15T09:44:41.735Z,972.59
2022-10-15T09:45:41.719Z,972.63
2022-10-15T09:46:41.730Z,972.54
2022-10-15T09:47:41.692Z,972.62
2022-10-15T09:48:41.676Z,972.55
2022-10-15T09:49:41.663Z,972.64
2022-10-15T09:50:41.673Z,972.58
2022-10-15T09:51:41.634Z,972.62
2022-10-15T09:52:41.702Z,972.64
2022-10-15T09:53:41.623Z,972.59
2022-10-15T09:54:41.613Z,972.62
2022-10-15T09:55:41.730Z,972.71
2022-10-15T09:56:41.578Z,972.65
2022-10-15T09:57:41.562Z,972.66
2022-10-15T09:58:41.554Z,972.63
2022-10-15T09:59:41.538Z,972.68
2022-10-15T10:00:41.531Z,972.66
2022-10-15T10:01:41.592Z,972.72
2022-10-15T10:02:41.871Z,972.74
2022-10-15T10:03:41.481Z,972.71
2022-10-15T10:04:41.559Z,972.71
2022-10-15T10:05:41.480Z,972.66
2022-10-15T10:06:41.517Z,972.72
2022-10-15T10:07:41.608Z,972.70
2022-10-15T10:08:41.543Z,972.76
2022-10-15T10:09:41.883Z,972.78
2022-10-15T10:10:44.446Z,972.76
2022-10-15T10:11:41.368Z,972.71
2022-10-15T10:12:41.466Z,972.71
2022-10-15T10:13:41.349Z,972.69
2022-10-15T10:14:41.427Z,972.66
2022-10-15T10:15:41.348Z,972.64
2022-10-15T10:17:14.785Z,972.73
2022-10-15T10:18:14.769Z,972.75
2022-10-15T10:19:14.762Z,972.75
2022-10-15T10:20:14.883Z,972.73
2022-10-15T10:21:15.180Z,972.78
2022-10-15T10:22:14.742Z,972.78
2022-10-15T10:23:14.710Z,972.70
2022-10-15T10:24:14.692Z,972.71
2022-10-15T10:25:14.685Z,972.74
2022-10-15T10:26:15.409Z,972.71
2022-10-15T10:27:14.865Z,972.64
2022-10-15T10:28:14.652Z,972.55
2022-10-15T10:29:22.299Z,972.60
2022-10-15T10:30:15.908Z,972.54
2022-10-15T10:31:14.594Z,972.58
2022-10-15T10:32:14.585Z,972.62
2022-10-15T10:33:14.680Z,972.68
2022-10-15T10:34:14.720Z,972.73
2022-10-15T10:35:14.559Z,972.63
2022-10-15T10:36:14.531Z,972.68
2022-10-15T10:37:14.676Z,972.74
2022-10-15T10:38:14.516Z,972.81
2022-10-15T10:39:14.663Z,972.75
2022-10-15T10:40:14.537Z,972.79
2022-10-15T10:41:14.471Z,972.92
2022-10-15T10:42:14.775Z,972.84
2022-10-15T10:43:14.447Z,972.85
2022-10-15T10:44:14.562Z,972.91
2022-10-15T10:45:18.389Z,972.81
2022-10-15T10:46:14.710Z,972.90
2022-10-15T10:47:14.400Z,972.84
2022-10-15T10:48:14.505Z,972.78
2022-10-15T10:49:14.538Z,972.87
2022-10-15T10:50:14.553Z,972.91
2022-10-15T10:51:16.930Z,972.85
2022-10-15T10:52:14.745Z,972.84
2022-10-15T10:53:14.303Z,972.83
2022-10-15T10:54:14.318Z,972.88
2022-10-15T10:55:14.409Z,972.92
2022-10-15T10:56:14.261Z,972.89
2022-10-15T10:57:14.250Z,972.89
2022-10-15T10:58:14.231Z,972.91
2022-10-15T10:59:14.223Z,972.90
2022-10-15T11:00:14.206Z,972.91
2022-10-15T11:01:14.390Z,972.90
2022-10-15T11:02:14.187Z,972.87
2022-10-15T11:03:14.175Z,972.89
2022-10-15T11:04:17.102Z,972.90
2022-10-15T11:05:14.164Z,973.00
2022-10-15T11:06:14.139Z,972.92
2022-10-15T11:07:14.110Z,972.99
2022-10-15T11:08:14.110Z,973.03
2022-10-15T11:09:14.091Z,973.05
2022-10-15T11:10:14.107Z,973.02
2022-10-15T11:11:14.061Z,972.95
2022-10-15T11:12:14.050Z,972.84
2022-10-15T11:13:14.084Z,972.93
2022-10-15T11:14:14.023Z,972.96
2022-10-15T11:15:14.004Z,972.92
2022-10-15T11:16:13.996Z,972.94
2022-10-15T11:17:13.974Z,972.91
2022-10-15T11:18:13.962Z,972.82
2022-10-15T11:19:19.137Z,972.81
2022-10-15T11:21:13.921Z,972.83
2022-10-15T11:22:13.963Z,972.89
2022-10-15T11:23:13.899Z,972.77
2022-10-15T11:24:13.889Z,972.88
2022-10-15T11:25:13.873Z,972.76
2022-10-15T11:26:13.882Z,972.82
2022-10-15T11:27:13.845Z,972.92
2022-10-15T11:28:13.833Z,972.86
2022-10-15T11:29:13.830Z,972.81
2022-10-15T11:30:13.809Z,972.80
2022-10-15T11:31:13.843Z,972.86
2022-10-15T11:32:15.364Z,972.73
2022-10-15T11:33:15.218Z,972.80
2022-10-15T11:34:13.752Z,972.79
2022-10-15T11:35:20.072Z,972.79
2022-10-15T11:36:14.740Z,972.75
2022-10-15T11:37:13.712Z,972.69
2022-10-15T11:38:13.702Z,972.67
2022-10-15T11:39:13.688Z,972.59
2022-10-15T11:40:13.678Z,972.58
2022-10-15T11:41:13.661Z,972.56
2022-10-15T11:42:13.667Z,972.41
2022-10-15T11:43:13.624Z,972.32
2022-10-15T11:44:13.622Z,972.26
2022-10-15T11:45:13.606Z,972.31
2022-10-15T11:46:13.594Z,972.39
2022-10-15T11:47:13.578Z,972.35
2022-10-15T11:48:13.570Z,972.35
2022-10-15T11:49:13.546Z,972.34
2022-10-15T11:50:13.533Z,972.28
2022-10-15T11:51:13.525Z,972.22
2022-10-15T11:52:13.510Z,972.21
2022-10-15T11:53:13.491Z,972.26
2022-10-15T11:54:13.483Z,972.22
2022-10-15T11:55:13.467Z,972.30
2022-10-15T11:56:13.458Z,972.26
2022-10-15T11:57:13.445Z,972.38
2022-10-15T11:58:13.458Z,972.30
2022-10-15T11:59:13.418Z,972.31
2022-10-15T12:00:13.407Z,972.24
2022-10-15T12:01:13.390Z,972.16
2022-10-15T12:02:13.377Z,972.23
2022-10-15T12:03:13.414Z,972.27
2022-10-15T12:04:13.384Z,972.29
2022-10-15T12:05:13.337Z,972.21
2022-10-15T12:06:13.326Z,972.12
2022-10-15T12:07:13.312Z,972.04
2022-10-15T12:08:13.299Z,972.19
2022-10-15T12:09:13.283Z,972.15
2022-10-15T12:10:13.269Z,972.20
2022-10-15T12:11:13.255Z,972.20
2022-10-15T12:12:13.248Z,972.14
2022-10-15T12:13:13.224Z,972.15
2022-10-15T12:14:13.236Z,972.12
2022-10-15T12:15:13.197Z,972.09
2022-10-15T12:16:13.190Z,972.08
2022-10-15T12:17:13.171Z,972.24
2022-10-15T12:18:13.160Z,972.24
2022-10-15T12:19:13.144Z,972.21
2022-10-15T12:20:13.136Z,972.21
2022-10-15T12:21:13.122Z,972.19
2022-10-15T12:22:13.111Z,972.11
2022-10-15T12:23:13.097Z,972.21
2022-10-15T12:24:13.085Z,972.24
2022-10-15T12:25:13.067Z,972.07
2022-10-15T12:27:13.043Z,972.12
2022-10-15T12:28:13.033Z,972.11
2022-10-15T12:29:13.033Z,972.09
2022-10-15T12:30:13.159Z,972.14
2022-10-15T12:31:12.983Z,972.13
2022-10-15T12:32:12.973Z,972.24